Weather History for KPPQ - October, 2013

Change the Weather History Date:

Sunday, October 20, 2013

  Actual Average (KUIN) Record (KUIN)
Temperature  
Mean Temperature 57 °F 53 °F  
Max Temperature 72 °F 64 °F 87 °F (1979)
Min Temperature 42 °F 43 °F 22 °F (1960)
Degree Days  
Heating Degree Days 8 12  
Month to date heating degree days 185  
Since 1 July heating degree days 272  
Cooling Degree Days 0 0  
Month to date cooling degree days 14  
Year to date cooling degree days 1090  
Growing Degree Days 7 (Base 50)    
Moisture  
Dew Point 38 °F    
Average Humidity 53    
Maximum Humidity 83    
Minimum Humidity 27    
Precipitation  
Precipitation 0.00 in 0.10 in 1.29 in (2005)
Month to date precipitation 1.96  
Year to date precipitation 31.01  
Sea Level Pressure  
Sea Level Pressure 29.87 in    
Wind  
Wind Speed 8 mph (SSW)    
Max Wind Speed 17 mph    
Max Gust Speed 25 mph    
Visibility 10 miles    
Events      
T = Trace of Precipitation, MM = Missing Value Source: NWS Daily Summary

Daily Weather History Graph

Daily Weather History Graph

Search for Another Location

Airport or City:

Trip Planner

Search our weather history database for the weather conditions in past years. The results will help you decide how hot, cold, wet, or windy it might be!

Date:

Astronomy

Oct. 20, 2013 Rise Set
Actual Time 7:18 AM CDT 6:16 PM CDT
Civil Twilight 6:51 AM CDT 6:43 PM CDT
Nautical Twilight 6:20 AM CDT 7:15 PM CDT
Astronomical Twilight 5:48 AM CDT 7:46 PM CDT
Moon 7:25 PM CDT (10/20) 8:56 AM CDT (10/20)
Length of Visible Light 11h 52m
Length of Day
10h 57m
Full, 97% of the Moon is Illuminated
Oct 20
Full
Oct 26
Last Quarter
Nov 3
New
Nov 9
First Quarter
Nov 17
Full

Hourly Weather History & Observations

Time (CDT) Temp. Windchill Dew Point Humidity Pressure Visibility Wind Dir Wind Speed Gust Speed Precip Events Conditions
12:15 AM 47.5 °F - 37.0 °F 67% 29.93 in 10.0 mi SW 5.8 mph - N/A   Clear
12:35 AM 47.5 °F - 37.4 °F 68% 29.93 in 10.0 mi WSW 5.8 mph - N/A   Clear
12:55 AM 46.4 °F 43.5 °F 37.4 °F 71% 29.93 in 10.0 mi SW 5.8 mph - N/A   Clear
1:15 AM 46.4 °F 43.5 °F 37.6 °F 71% 29.93 in 10.0 mi SW 5.8 mph - N/A   Clear
1:35 AM 46.4 °F 42.9 °F 37.6 °F 71% 29.93 in 10.0 mi SW 6.9 mph - N/A   Clear
1:55 AM 46.9 °F - 37.9 °F 71% 29.92 in 10.0 mi SW 8.1 mph - N/A   Clear
2:15 AM 47.3 °F - 37.9 °F 70% 29.92 in 10.0 mi SW 8.1 mph - N/A   Clear
2:35 AM 47.3 °F - 37.9 °F 70% 29.91 in 10.0 mi SW 8.1 mph - N/A   Clear
2:55 AM 47.3 °F - 37.9 °F 70% 29.91 in 10.0 mi SW 8.1 mph - N/A   Clear
3:15 AM 46.9 °F - 38.1 °F 71% 29.91 in 10.0 mi SW 6.9 mph - N/A   Clear
3:35 AM 46.8 °F - 37.9 °F 71% 29.90 in 10.0 mi SSW 5.8 mph - N/A   Clear
3:55 AM 46.4 °F 43.5 °F 37.9 °F 72% 29.89 in 10.0 mi SSW 5.8 mph - N/A   Clear
4:15 AM 44.6 °F 43.1 °F 37.6 °F 76% 29.89 in 10.0 mi South 3.5 mph - N/A   Clear
4:35 AM 42.8 °F 40.1 °F 37.4 °F 81% 29.89 in 10.0 mi South 4.6 mph - N/A   Clear
4:55 AM 42.1 °F 39.2 °F 37.2 °F 83% 29.89 in 10.0 mi South 4.6 mph - N/A   Clear
5:15 AM 43.7 °F 40.3 °F 37.6 °F 79% 29.89 in 10.0 mi South 5.8 mph - N/A   Clear
5:35 AM 43.9 °F 41.3 °F 37.6 °F 78% 29.89 in 10.0 mi South 4.6 mph - N/A   Clear
5:55 AM 43.7 °F 40.3 °F 37.6 °F 79% 29.89 in 10.0 mi SSW 5.8 mph - N/A   Clear
6:15 AM 44.6 °F 40.7 °F 37.8 °F 77% 29.88 in 10.0 mi SSW 6.9 mph - N/A   Clear
6:35 AM 44.2 °F 41.8 °F 37.6 °F 77% 29.88 in 10.0 mi SSW 4.6 mph - N/A   Clear
6:55 AM 43.7 °F 40.3 °F 37.4 °F 78% 29.88 in 10.0 mi South 5.8 mph - N/A   Clear
7:15 AM 44.6 °F 41.4 °F 37.6 °F 76% 29.88 in 10.0 mi South 5.8 mph - N/A   Clear
7:35 AM 45.0 °F 41.2 °F 37.8 °F 76% 29.88 in 10.0 mi SSW 6.9 mph - N/A   Clear
7:55 AM 46.4 °F 42.4 °F 38.1 °F 73% 29.89 in 10.0 mi SSW 8.1 mph - N/A   Clear
8:15 AM 47.8 °F - 38.3 °F 70% 29.89 in 10.0 mi SSW 8.1 mph - N/A   Clear
8:35 AM 48.4 °F - 38.7 °F 69% 29.89 in 10.0 mi SSW 6.9 mph - N/A   Clear
8:55 AM 49.8 °F - 38.8 °F 66% 29.90 in 10.0 mi SSW 8.1 mph - N/A   Clear
9:15 AM 51.1 °F - 39.2 °F 64% 29.89 in 10.0 mi SSW 8.1 mph - N/A   Clear
9:35 AM 51.8 °F - 39.0 °F 62% 29.89 in 10.0 mi SW 10.4 mph 16.1 mph N/A   Clear
9:55 AM 54.0 °F - 39.9 °F 59% 29.89 in 10.0 mi SW 13.8 mph 18.4 mph N/A   Clear
10:15 AM 55.4 °F - 40.3 °F 57% 29.88 in 10.0 mi SW 13.8 mph - N/A   Clear
10:35 AM 56.8 °F - 40.3 °F 54% 29.88 in 10.0 mi SSW 11.5 mph - N/A   Clear
10:55 AM 58.6 °F - 40.5 °F 51% 29.88 in 10.0 mi SSW 10.4 mph 16.1 mph N/A   Clear
11:15 AM 59.9 °F - 40.6 °F 49% 29.88 in 10.0 mi SSW 10.4 mph - N/A   Clear
11:35 AM 61.7 °F - 41.4 °F 47% 29.87 in 10.0 mi SSW 11.5 mph - N/A   Clear
11:55 AM 63.0 °F - 41.2 °F 45% 29.86 in 10.0 mi SSW 8.1 mph - N/A   Clear
12:15 PM 64.8 °F - 41.2 °F 42% 29.86 in 10.0 mi SSW 8.1 mph 16.1 mph N/A   Clear
12:35 PM 65.7 °F - 40.1 °F 39% 29.85 in 10.0 mi SSW 9.2 mph 19.6 mph N/A   Clear
12:55 PM 67.3 °F - 39.7 °F 36% 29.84 in 10.0 mi SSW 11.5 mph 17.3 mph N/A   Clear
1:15 PM 68.0 °F - 38.8 °F 34% 29.83 in 10.0 mi SSW 15.0 mph 18.4 mph N/A   Clear
1:35 PM 69.1 °F - 39.6 °F 34% 29.82 in 10.0 mi SSW 10.4 mph 20.7 mph N/A   Clear
1:55 PM 69.8 °F - 39.0 °F 33% 29.81 in 10.0 mi South 11.5 mph 23.0 mph N/A   Clear
2:15 PM 70.3 °F - 38.8 °F 32% 29.81 in 10.0 mi SSW 13.8 mph 21.9 mph N/A   Clear
2:35 PM 71.1 °F - 39.4 °F 32% 29.81 in 10.0 mi South 11.5 mph 19.6 mph N/A   Clear
2:55 PM 71.8 °F - 38.8 °F 30% 29.80 in 10.0 mi SSW 12.7 mph 17.3 mph N/A   Clear
3:15 PM 70.7 °F - 37.4 °F 30% 29.80 in 10.0 mi SSW 13.8 mph 21.9 mph N/A   Clear
3:35 PM 72.1 °F - 36.3 °F 27% 29.80 in 10.0 mi SW 17.3 mph 24.2 mph N/A   Clear
3:55 PM 70.9 °F - 36.0 °F 28% 29.80 in 10.0 mi SW 17.3 mph 25.3 mph N/A   Scattered Clouds
4:15 PM 71.2 °F - 36.3 °F 28% 29.80 in 10.0 mi SW 15.0 mph 23.0 mph N/A   Scattered Clouds
4:35 PM 71.6 °F - 37.2 °F 29% 29.80 in 10.0 mi SSW 10.4 mph 23.0 mph N/A   Clear
4:55 PM 71.1 °F - 36.9 °F 29% 29.81 in 10.0 mi SW 13.8 mph 25.3 mph N/A   Clear
5:15 PM 69.8 °F - 36.7 °F 30% 29.81 in 10.0 mi SW 11.5 mph 19.6 mph N/A   Clear
5:35 PM 68.9 °F - 36.3 °F 30% 29.81 in 10.0 mi SW 13.8 mph 20.7 mph N/A   Clear
5:55 PM 67.8 °F - 36.7 °F 32% 29.82 in 10.0 mi SSW 9.2 mph - N/A   Clear
6:15 PM 66.7 °F - 36.5 °F 33% 29.82 in 10.0 mi SSW 12.7 mph 18.4 mph N/A   Scattered Clouds
6:35 PM 66.6 °F - 36.5 °F 33% 29.83 in 10.0 mi SSW 11.5 mph 19.6 mph N/A   Scattered Clouds
6:55 PM 65.7 °F - 36.7 °F 34% 29.83 in 10.0 mi SSW 9.2 mph - N/A   Clear
7:15 PM 65.1 °F - 36.7 °F 35% 29.83 in 10.0 mi SSW 10.4 mph - N/A   Clear
7:35 PM 64.4 °F - 37.4 °F 37% 29.85 in 10.0 mi SSW 8.1 mph - N/A   Clear
7:55 PM 64.4 °F - 37.4 °F 37% 29.85 in 10.0 mi SW 8.1 mph - N/A   Clear
8:15 PM 63.5 °F - 37.9 °F 39% 29.85 in 10.0 mi SSW 6.9 mph - N/A   Clear
8:35 PM 62.6 °F - 38.3 °F 41% 29.86 in 10.0 mi SW 6.9 mph - N/A   Clear
8:55 PM 61.3 °F - 38.5 °F 43% 29.86 in 10.0 mi SSW 6.9 mph - N/A   Clear
9:15 PM 61.9 °F - 38.5 °F 42% 29.87 in 10.0 mi SSW 9.2 mph - N/A   Clear
9:35 PM 61.7 °F - 38.8 °F 43% 29.87 in 10.0 mi SSW 9.2 mph 17.3 mph N/A   Clear
9:55 PM 60.8 °F - 39.4 °F 45% 29.88 in 10.0 mi SSW 6.9 mph - N/A   Clear
10:15 PM 60.1 °F - 40.1 °F 48% 29.88 in 10.0 mi SSW 9.2 mph - N/A   Clear
10:35 PM 59.9 °F - 40.5 °F 49% 29.89 in 10.0 mi SSW 10.4 mph - N/A   Clear
10:55 PM 59.4 °F - 41.0 °F 51% 29.89 in 10.0 mi SSW 10.4 mph 17.3 mph N/A   Clear
11:15 PM 59.2 °F - 41.4 °F 52% 29.89 in 10.0 mi SSW 10.4 mph 16.1 mph N/A   Scattered Clouds
11:35 PM 58.8 °F - 41.7 °F 53% 29.89 in 10.0 mi SSW 9.2 mph - N/A   Scattered Clouds
11:55 PM 58.8 °F - 41.9 °F 53% 29.88 in 10.0 mi SW 11.5 mph 17.3 mph N/A   Clear